Terminal Aerodrome Forecast
Issued by NWS Detroit/Pontiac, MI

Home | Current Version | Previous Version | Text Only | Print | Product List | Glossary On
Versions: 1 2 3 4 5 6 7 8 9 10 11 12 13 14 15
000
FTUS43 KDTX 012320
TAFFNT
TAF
KFNT 012320Z 0200/0224 14006KT P6SM SCT250
     FM020400 20011KT P6SM SCT250 WS010/23040KT
     FM021300 22013G23KT P6SM BKN045
     FM021600 22016G26KT P6SM -SHRA SCT025 BKN035
     FM021800 23018G28KT 5SM -SHRA BKN025 OVC035=

USA.gov is the U.S. government's official web portal to all federal, state and local government web resources and services.